createdAt,value
2023-09-18T00:01:29.966Z,11.48
2023-09-18T00:06:38.027Z,14.48
2023-09-18T00:11:49.479Z,13.10
2023-09-18T00:17:02.383Z,10.68
2023-09-18T00:22:17.891Z,12.02
2023-09-18T00:27:21.569Z,12.23
2023-09-18T00:32:42.469Z,12.70
2023-09-18T00:37:48.352Z,12.55
2023-09-18T00:43:11.307Z,11.53
2023-09-18T00:48:25.208Z,11.00
2023-09-18T00:53:29.880Z,14.27
2023-09-18T00:58:36.383Z,11.05
2023-09-18T01:03:50.302Z,11.00
2023-09-18T01:09:03.595Z,11.05
2023-09-18T01:14:25.622Z,9.55
2023-09-18T01:19:51.060Z,9.77
2023-09-18T01:25:00.145Z,11.00
2023-09-18T01:30:11.529Z,17.38
2023-09-18T01:35:21.466Z,13.23
2023-09-18T01:40:33.977Z,12.10
2023-09-18T01:45:46.772Z,11.98
2023-09-18T01:50:55.170Z,10.63
2023-09-18T01:56:11.457Z,9.97
2023-09-18T02:01:32.733Z,10.18
2023-09-18T02:06:39.368Z,10.70
2023-09-18T02:11:49.169Z,11.80
2023-09-18T02:17:01.628Z,11.63
2023-09-18T02:22:15.514Z,10.60
2023-09-18T02:27:58.474Z,11.90
2023-09-18T02:33:21.079Z,11.15
2023-09-18T02:38:29.978Z,11.47
2023-09-18T02:43:52.607Z,12.40
2023-09-18T02:48:59.653Z,13.70
2023-09-18T02:54:10.181Z,11.10
2023-09-18T02:59:34.248Z,11.47
2023-09-18T03:04:39.529Z,11.80
2023-09-18T03:09:58.883Z,11.75
2023-09-18T03:15:18.315Z,12.60
2023-09-18T03:20:25.417Z,13.50
2023-09-18T03:25:48.965Z,11.45
2023-09-18T03:31:16.744Z,11.80
2023-09-18T03:36:26.696Z,13.25
2023-09-18T03:47:00.488Z,13.50
2023-09-18T03:52:11.915Z,11.25
2023-09-18T03:57:20.847Z,13.05
2023-09-18T04:02:32.227Z,12.93
2023-09-18T04:07:39.815Z,14.07
2023-09-18T04:12:45.911Z,15.20
2023-09-18T04:18:06.662Z,15.63
2023-09-18T04:23:27.224Z,17.95
2023-09-18T04:28:36.821Z,17.25
2023-09-18T04:33:54.137Z,18.73
2023-09-18T04:39:05.524Z,15.43
2023-09-18T04:44:13.380Z,17.25
2023-09-18T04:49:19.992Z,16.20
2023-09-18T04:54:32.268Z,18.20
2023-09-18T04:59:39.513Z,15.02
2023-09-18T05:04:55.380Z,16.03
2023-09-18T05:10:05.011Z,17.00
2023-09-18T05:15:12.858Z,16.38
2023-09-18T05:32:05.558Z,17.13
2023-09-18T05:37:08.241Z,13.80
2023-09-18T05:42:12.719Z,16.50
2023-09-18T05:47:20.631Z,14.18
2023-09-18T05:52:26.933Z,15.18
2023-09-18T05:57:29.960Z,16.90
2023-09-18T06:02:34.349Z,17.52
2023-09-18T06:07:41.486Z,20.40
2023-09-18T06:12:44.354Z,16.57
2023-09-18T06:17:51.349Z,14.20
2023-09-18T06:22:54.686Z,19.58
2023-09-18T06:27:57.722Z,17.93
2023-09-18T06:33:02.543Z,15.63
2023-09-18T06:38:08.051Z,13.20
2023-09-18T06:43:12.115Z,17.20
2023-09-18T06:48:20.735Z,16.33
2023-09-18T06:53:34.161Z,15.73
2023-09-18T06:58:41.404Z,14.63
2023-09-18T07:03:50.328Z,11.47
2023-09-18T07:08:53.603Z,15.15
2023-09-18T07:13:56.373Z,12.23
2023-09-18T07:19:00.244Z,14.90
2023-09-18T07:24:03.201Z,14.70
2023-09-18T07:29:11.672Z,14.20
2023-09-18T07:34:16.218Z,10.20
2023-09-18T07:39:19.228Z,14.85
2023-09-18T07:44:26.159Z,9.63
2023-09-18T07:49:31.937Z,11.07
2023-09-18T07:54:34.446Z,10.57
2023-09-18T07:59:37.232Z,12.70
2023-09-18T08:04:44.840Z,9.02
2023-09-18T08:09:47.441Z,9.93
2023-09-18T08:14:50.380Z,10.50
2023-09-18T08:20:00.905Z,9.55
2023-09-18T08:25:05.612Z,8.03
2023-09-18T08:30:10.070Z,8.65
2023-09-18T08:35:15.005Z,9.00
2023-09-18T08:40:18.151Z,8.67
2023-09-18T08:45:28.796Z,9.60
2023-09-18T08:50:34.400Z,8.82
2023-09-18T08:55:47.083Z,7.53
2023-09-18T09:00:50.937Z,8.10
2023-09-18T09:05:55.828Z,10.15
2023-09-18T09:10:58.830Z,8.02
2023-09-18T09:16:01.867Z,12.33
2023-09-18T09:21:06.860Z,9.02
2023-09-18T09:26:21.252Z,6.78
2023-09-18T09:31:26.712Z,8.23
2023-09-18T09:36:32.610Z,9.80
2023-09-18T09:41:35.583Z,9.20
2023-09-18T09:46:48.199Z,7.90
2023-09-18T09:51:52.899Z,10.00
2023-09-18T09:56:55.751Z,6.93
2023-09-18T10:02:20.470Z,8.20
2023-09-18T10:07:25.163Z,8.13
2023-09-18T10:12:31.035Z,6.82
2023-09-18T10:17:37.878Z,11.15
2023-09-18T10:22:47.082Z,6.50
2023-09-18T10:27:52.775Z,6.20
2023-09-18T10:32:57.752Z,7.88
2023-09-18T10:38:03.909Z,9.30
2023-09-18T10:43:12.158Z,5.83
2023-09-18T10:48:18.143Z,6.70
2023-09-18T10:53:26.324Z,6.10
2023-09-18T10:58:29.412Z,6.27
2023-09-18T11:03:35.261Z,8.27
2023-09-18T11:08:47.268Z,7.35
2023-09-18T11:13:53.109Z,7.33
2023-09-18T11:19:19.992Z,6.00
2023-09-18T11:24:31.267Z,8.98
2023-09-18T11:29:42.924Z,7.32
2023-09-18T11:34:47.462Z,6.97
2023-09-18T11:39:51.843Z,7.68
2023-09-18T11:44:55.671Z,7.20
2023-09-18T11:50:00.955Z,7.50
2023-09-18T11:55:09.741Z,7.55
2023-09-18T12:00:20.571Z,8.45
2023-09-18T12:05:24.491Z,9.07
2023-09-18T12:10:29.211Z,13.13
2023-09-18T12:15:32.505Z,9.27
2023-09-18T12:20:41.838Z,11.30
2023-09-18T12:26:08.287Z,12.63
2023-09-18T12:31:12.733Z,9.68
2023-09-18T12:36:20.933Z,11.80
2023-09-18T12:41:32.538Z,15.13
2023-09-18T12:46:36.711Z,11.85
2023-09-18T12:51:39.355Z,11.55
2023-09-18T12:56:43.910Z,15.73
2023-09-18T13:01:49.258Z,10.37
2023-09-18T13:07:12.297Z,11.90
2023-09-18T13:12:16.472Z,11.82
2023-09-18T13:17:19.039Z,11.00
2023-09-18T13:22:25.801Z,14.55
2023-09-18T13:27:31.123Z,11.98
2023-09-18T13:32:39.103Z,10.57
2023-09-18T13:37:51.193Z,10.35
2023-09-18T13:42:55.210Z,12.18
2023-09-18T13:47:57.913Z,11.03
2023-09-18T13:53:03.370Z,11.20
2023-09-18T13:58:08.127Z,10.68
2023-09-18T14:03:10.795Z,9.40
2023-09-18T14:08:13.266Z,9.03
2023-09-18T14:13:17.102Z,9.48
2023-09-18T14:18:19.746Z,10.85
2023-09-18T14:23:22.340Z,12.20
2023-09-18T14:28:26.432Z,10.18
2023-09-18T14:33:29.143Z,9.77
2023-09-18T14:38:31.721Z,8.70
2023-09-18T14:43:35.811Z,8.93
2023-09-18T14:48:38.539Z,10.45
2023-09-18T14:53:41.511Z,9.88
2023-09-18T14:58:45.629Z,9.73
2023-09-18T15:03:48.245Z,10.40
2023-09-18T15:08:50.820Z,10.27
2023-09-18T15:13:54.762Z,9.10
2023-09-18T15:18:58.820Z,8.40
2023-09-18T15:24:01.404Z,10.05
2023-09-18T15:29:05.439Z,10.67
2023-09-18T15:34:08.092Z,12.23
2023-09-18T15:39:10.722Z,10.13
2023-09-18T15:44:15.086Z,9.10
2023-09-18T15:49:17.539Z,8.83
2023-09-18T15:54:19.993Z,10.07
2023-09-18T15:59:26.960Z,11.60
2023-09-18T16:04:29.659Z,10.50
2023-09-18T16:09:34.893Z,12.48
2023-09-18T16:14:38.689Z,14.25
2023-09-18T16:19:41.092Z,12.90
2023-09-18T16:24:43.957Z,11.70
2023-09-18T16:29:47.759Z,12.68
2023-09-18T16:34:50.690Z,12.63
2023-09-18T16:39:53.222Z,14.00
2023-09-18T16:44:57.158Z,13.13
2023-09-18T16:49:59.819Z,14.05
2023-09-18T16:55:02.327Z,14.60
2023-09-18T17:00:08.320Z,12.57
2023-09-18T17:05:10.875Z,12.60
2023-09-18T17:10:13.374Z,13.30
2023-09-18T17:15:25.922Z,12.53
2023-09-18T17:20:30.085Z,11.68
2023-09-18T17:25:32.669Z,12.02
2023-09-18T17:30:36.678Z,12.93
2023-09-18T17:35:40.437Z,12.65
2023-09-18T17:40:43.071Z,14.23
2023-09-18T17:45:50.111Z,12.30
2023-09-18T17:50:52.673Z,12.48
2023-09-18T17:55:56.672Z,15.68
2023-09-18T18:01:00.529Z,15.03
2023-09-18T18:06:08.823Z,13.57
2023-09-18T18:11:11.550Z,14.32
2023-09-18T18:16:15.473Z,14.63
2023-09-18T18:21:18.510Z,12.33
2023-09-18T18:26:23.142Z,15.05
2023-09-18T18:31:27.382Z,14.13
2023-09-18T18:36:30.593Z,13.13
2023-09-18T18:41:33.005Z,12.40
2023-09-18T18:46:37.017Z,12.88
2023-09-18T18:51:39.551Z,12.43
2023-09-18T18:56:42.965Z,11.97
2023-09-18T19:01:55.200Z,13.32
2023-09-18T19:06:58.370Z,14.25
2023-09-18T19:12:04.833Z,15.33
2023-09-18T19:17:09.013Z,12.15
2023-09-18T19:22:14.477Z,11.93
2023-09-18T19:27:17.058Z,12.97
2023-09-18T19:32:24.102Z,12.63
2023-09-18T19:37:26.638Z,12.68
2023-09-18T19:42:29.159Z,11.83
2023-09-18T19:47:33.456Z,10.80
2023-09-18T19:52:36.085Z,12.65
2023-09-18T19:57:38.799Z,11.57
2023-09-18T20:02:43.064Z,11.70
2023-09-18T20:07:46.400Z,10.98
2023-09-18T20:12:52.504Z,12.57
2023-09-18T20:18:15.695Z,11.60
2023-09-18T20:23:18.502Z,13.00
2023-09-18T20:28:20.998Z,10.40
2023-09-18T20:33:24.959Z,11.17
2023-09-18T20:38:30.555Z,11.23
2023-09-18T20:43:33.128Z,12.90
2023-09-18T20:48:37.444Z,10.27
2023-09-18T20:53:40.284Z,11.90
2023-09-18T20:58:42.865Z,11.00
2023-09-18T21:03:46.933Z,10.63
2023-09-18T21:08:49.822Z,11.30
2023-09-18T21:13:55.379Z,12.82
2023-09-18T21:18:59.412Z,12.40
2023-09-18T21:24:02.093Z,13.67
2023-09-18T21:29:04.878Z,10.70
2023-09-18T21:34:08.988Z,9.82
2023-09-18T21:39:11.654Z,11.05
2023-09-18T21:44:14.385Z,10.30
2023-09-18T21:49:18.650Z,10.73
2023-09-18T21:54:21.186Z,11.50
2023-09-18T21:59:23.829Z,11.40
2023-09-18T22:04:27.798Z,10.55
2023-09-18T22:09:30.525Z,11.25
2023-09-18T22:14:33.152Z,11.10
2023-09-18T22:19:37.486Z,11.97
2023-09-18T22:24:40.058Z,11.13
2023-09-18T22:29:43.116Z,11.52
2023-09-18T22:34:46.972Z,11.20
2023-09-18T22:40:02.658Z,12.45
2023-09-18T22:46:01.213Z,11.63
2023-09-18T22:51:59.919Z,12.50
2023-09-18T22:57:04.152Z,10.35
2023-09-18T23:08:57.357Z,14.40
2023-09-18T23:14:02.707Z,12.03
2023-09-18T23:19:05.421Z,11.65
2023-09-18T23:24:08.933Z,11.82
2023-09-18T23:29:12.870Z,11.10
2023-09-18T23:34:15.368Z,11.90
2023-09-18T23:39:18.086Z,10.95
2023-09-18T23:44:22.154Z,10.87
2023-09-18T23:49:24.764Z,11.98
2023-09-18T23:54:30.160Z,12.18
2023-09-18T23:59:33.930Z,11.23
